Главная страница
METAR-TAF:

METAR-TAF

Аэропорты :

Нджамена, Чад

широта: 12-08N, долгота: 015-02E, высота над уровнем моря: 295 м

Текущие метеонаблюдения

Эта сводка был подготовлена 44 минут назад, в 09:00 UTC
Ветер 10 Узел от северо-северо-восточный, изменяющийся между северо-северо-восточный и восточный
Температура 35°C
Влажность 19%
Давление 1011 hPa
Видимость: 8000 м

METAR: FTTJ 180900Z 03010KT 030V100 8000 NSC 35/08 Q1011 NOSIG

Время: 10:44 (09:44 UTC)

Прогноз

Эта сводка был подготовлена 4 часа и 44 минут назад, в 05:00 UTC
Прогноз действительный с 18-го 06 UTC до 19-го 12 UTC
Ветер 4 Узел переменных направлений
Видимость 10 км и более
Нет облачности ниже 1500 м, и нет кучево-дождевой облачности
временами
С 18-го 16 UTC до 18-го 19 UTC
Видимость: 4000 м
мгла
изменения
С 19-го 05 UTC до 19-го 09 UTC
Ветер 10 Узел от восточно-северо-восточный

TAF: FTTJ 180500Z 1806/1912 VRB04KT CAVOK TEMPO 1816/1819 4000 HZ BECMG 1905/1909 06010KT

Метеонаблюдения и прогнозы для более 4000 аэропортов (сводки METAR и TAF).

Имеющиеся станции представлены на карте желтыми и красными точками.

Чтобы увидеть название станции, наведите на нее мышь.

Затем щелкните, чтобы увидеть метеонаблюдения и метеопрогнозы.

Управление картой: чтобы увеличить масштаб, щелкните зеленые кнопки с черным крестиком; чтобы уменьшить масштаб, щелкните зеленую кнопку с тире; для просмотра соседних карт щелкайте зеленые стрелки.


METAR-TAF: